createdAt,value
2023-03-08T00:01:40.319Z,7.68
2023-03-08T00:05:08.140Z,7.70
2023-03-08T00:08:16.650Z,7.63
2023-03-08T00:11:44.571Z,7.64
2023-03-08T00:15:12.845Z,7.63
2023-03-08T00:18:21.509Z,7.64
2023-03-08T00:21:50.307Z,7.63
2023-03-08T00:25:18.171Z,7.57
2023-03-08T00:28:46.251Z,7.53
2023-03-08T00:32:14.119Z,7.52
2023-03-08T00:35:42.052Z,7.51
2023-03-08T00:38:51.815Z,7.49
2023-03-08T00:42:19.649Z,7.43
2023-03-08T00:45:50.182Z,7.38
2023-03-08T00:49:15.653Z,7.33
2023-03-08T00:52:43.777Z,7.27
2023-03-08T00:56:11.488Z,7.25
2023-03-08T00:59:20.724Z,7.18
2023-03-08T01:02:48.569Z,7.10
2023-03-08T01:06:16.500Z,7.02
2023-03-08T01:09:44.323Z,7.05
2023-03-08T01:13:12.172Z,7.10
2023-03-08T01:16:21.094Z,7.18
2023-03-08T01:19:49.157Z,7.24
2023-03-08T01:22:39.167Z,7.29
2023-03-08T01:25:48.482Z,7.35
2023-03-08T01:29:16.633Z,7.42
2023-03-08T01:32:05.297Z,7.47
2023-03-08T01:35:33.382Z,7.52
2023-03-08T01:39:01.351Z,7.54
2023-03-08T01:42:29.226Z,7.59
2023-03-08T01:45:57.125Z,7.60
2023-03-08T01:49:24.973Z,7.63
2023-03-08T01:52:14.620Z,7.65
2023-03-08T01:55:42.624Z,7.66
2023-03-08T01:58:51.502Z,7.66
2023-03-08T02:02:19.658Z,7.62
2023-03-08T02:05:09.547Z,7.55
2023-03-08T02:08:38.418Z,7.41
2023-03-08T02:12:06.762Z,7.37
2023-03-08T02:15:34.804Z,7.38
2023-03-08T02:19:02.965Z,7.40
2023-03-08T02:22:30.690Z,7.36
2023-03-08T02:25:59.105Z,7.31
2023-03-08T02:29:27.031Z,7.36
2023-03-08T02:32:54.881Z,7.36
2023-03-08T02:36:22.883Z,7.41
2023-03-08T02:39:51.033Z,7.45
2023-03-08T02:43:00.154Z,7.44
2023-03-08T02:46:28.078Z,7.44
2023-03-08T02:49:19.065Z,7.40
2023-03-08T02:52:46.947Z,7.38
2023-03-08T02:55:55.036Z,7.31
2023-03-08T02:59:04.015Z,7.29
2023-03-08T03:02:31.903Z,7.30
2023-03-08T03:05:59.957Z,7.27
2023-03-08T03:09:08.223Z,7.26
2023-03-08T03:12:36.100Z,7.28
2023-03-08T03:16:04.120Z,7.18
2023-03-08T03:19:13.144Z,7.16
2023-03-08T03:22:41.108Z,7.18
2023-03-08T03:26:08.982Z,7.21
2023-03-08T03:29:36.878Z,7.21
2023-03-08T03:33:04.693Z,7.14
2023-03-08T03:35:53.650Z,7.13
2023-03-08T03:39:02.564Z,7.08
2023-03-08T03:42:30.565Z,7.05
2023-03-08T03:45:58.527Z,7.00
2023-03-08T03:49:26.436Z,6.91
2023-03-08T03:52:54.488Z,6.94
2023-03-08T03:56:22.516Z,6.87
2023-03-08T03:59:31.305Z,6.89
2023-03-08T04:02:40.167Z,6.86
2023-03-08T04:06:08.151Z,6.83
2023-03-08T04:09:18.303Z,6.84
2023-03-08T04:12:46.572Z,6.87
2023-03-08T04:15:55.575Z,6.90
2023-03-08T04:19:23.566Z,6.96
2023-03-08T04:22:51.554Z,7.03
2023-03-08T04:26:19.484Z,7.05
2023-03-08T04:29:47.779Z,7.09
2023-03-08T04:32:57.059Z,7.13
2023-03-08T04:36:25.209Z,7.18
2023-03-08T04:39:53.023Z,7.16
2023-03-08T04:43:02.067Z,7.15
2023-03-08T04:46:30.088Z,7.17
2023-03-08T04:49:57.946Z,7.19
2023-03-08T04:53:25.927Z,7.22
2023-03-08T04:56:54.957Z,7.20
2023-03-08T05:00:04.007Z,7.19
2023-03-08T05:03:12.661Z,7.23
2023-03-08T05:06:40.549Z,7.26
2023-03-08T05:10:12.403Z,7.30
2023-03-08T05:13:21.307Z,7.34
2023-03-08T05:16:49.396Z,7.43
2023-03-08T05:19:38.933Z,7.43
2023-03-08T05:22:58.241Z,7.44
2023-03-08T05:26:15.681Z,7.49
2023-03-08T05:29:43.581Z,7.51
2023-03-08T05:32:52.971Z,7.51
2023-03-08T05:36:22.180Z,7.53
2023-03-08T05:39:50.043Z,7.55
2023-03-08T05:43:19.168Z,7.58
2023-03-08T05:46:48.489Z,7.60
2023-03-08T05:49:59.173Z,7.68
2023-03-08T05:53:27.253Z,7.77
2023-03-08T05:56:54.988Z,7.80
2023-03-08T06:00:22.952Z,7.89
2023-03-08T06:03:50.732Z,7.97
2023-03-08T06:07:19.044Z,8.02
2023-03-08T06:10:46.838Z,8.11
2023-03-08T06:14:14.539Z,8.23
2023-03-08T06:17:03.866Z,8.30
2023-03-08T06:20:31.789Z,8.25
2023-03-08T06:23:28.436Z,8.23
2023-03-08T06:26:37.093Z,8.13
2023-03-08T06:30:04.921Z,8.15
2023-03-08T06:33:32.906Z,8.19
2023-03-08T06:37:00.775Z,8.21
2023-03-08T06:40:28.754Z,8.20
2023-03-08T06:43:37.610Z,8.29
2023-03-08T06:47:05.754Z,8.34
2023-03-08T06:50:33.541Z,8.37
2023-03-08T06:54:01.628Z,8.33
2023-03-08T06:57:29.720Z,8.39
2023-03-08T07:00:57.808Z,8.41
2023-03-08T07:04:25.628Z,8.45
2023-03-08T07:07:53.537Z,8.52
2023-03-08T07:11:21.296Z,8.56
2023-03-08T07:14:49.357Z,8.67
2023-03-08T07:18:17.245Z,8.74
2023-03-08T07:21:45.055Z,8.89
2023-03-08T07:25:01.157Z,8.97
2023-03-08T07:28:09.799Z,9.05
2023-03-08T07:31:37.475Z,9.15
2023-03-08T07:35:05.804Z,9.24
2023-03-08T07:38:33.783Z,9.26
2023-03-08T07:41:42.658Z,9.28
2023-03-08T07:44:51.710Z,9.33
2023-03-08T07:48:19.691Z,9.31
2023-03-08T07:51:29.741Z,8.96
2023-03-08T07:54:57.667Z,8.78
2023-03-08T07:58:25.573Z,8.86
2023-03-08T08:01:53.356Z,8.63
2023-03-08T08:05:22.076Z,8.78
2023-03-08T08:08:50.081Z,8.78
2023-03-08T08:12:18.441Z,8.82
2023-03-08T08:15:46.520Z,8.90
2023-03-08T08:18:16.084Z,8.86
2023-03-08T08:21:26.383Z,8.85
2023-03-08T08:24:52.297Z,8.88
2023-03-08T08:28:01.280Z,8.83
2023-03-08T08:31:29.379Z,8.94
2023-03-08T08:34:06.415Z,8.97
2023-03-08T08:37:15.296Z,9.05
2023-03-08T08:40:23.652Z,9.10
2023-03-08T08:43:32.532Z,9.18
2023-03-08T08:46:23.239Z,9.24
2023-03-08T08:48:55.272Z,9.28
2023-03-08T08:52:10.651Z,9.37
2023-03-08T08:54:39.028Z,9.44
2023-03-08T08:57:08.540Z,9.46
2023-03-08T08:59:38.496Z,9.55
2023-03-08T09:02:07.294Z,9.58
2023-03-08T09:04:59.137Z,9.71
2023-03-08T09:07:27.038Z,9.70
2023-03-08T09:10:54.965Z,9.80
2023-03-08T09:14:22.597Z,9.88
2023-03-08T09:17:50.383Z,9.98
2023-03-08T09:21:18.354Z,10.23
2023-03-08T09:24:46.207Z,10.49
2023-03-08T09:27:34.927Z,10.62
2023-03-08T09:31:02.634Z,10.65
2023-03-08T09:33:52.571Z,10.82
2023-03-08T09:37:08.534Z,10.85
2023-03-08T09:40:18.127Z,10.92
2023-03-08T09:43:46.061Z,11.17
2023-03-08T09:47:13.919Z,11.36
2023-03-08T09:50:26.294Z,11.52
2023-03-08T09:53:54.079Z,11.58
2023-03-08T09:57:21.839Z,11.79
2023-03-08T10:00:49.677Z,11.65
2023-03-08T10:04:17.499Z,11.86
2023-03-08T10:07:45.380Z,11.78
2023-03-08T10:11:13.108Z,11.84
2023-03-08T10:14:40.982Z,11.79
2023-03-08T10:18:08.788Z,11.69
2023-03-08T10:21:36.430Z,11.60
2023-03-08T10:25:04.294Z,11.53
2023-03-08T10:28:20.486Z,11.50
2023-03-08T10:31:48.677Z,11.45
2023-03-08T10:35:16.877Z,11.34
2023-03-08T10:38:16.659Z,11.34
2023-03-08T10:41:27.474Z,11.46
2023-03-08T10:44:57.447Z,11.48
2023-03-08T10:48:25.406Z,11.36
2023-03-08T10:51:53.497Z,11.29
2023-03-08T10:55:21.249Z,11.23
2023-03-08T10:58:30.111Z,11.39
2023-03-08T11:01:58.726Z,11.57
2023-03-08T11:05:27.039Z,11.76
2023-03-08T11:08:31.524Z,11.86
2023-03-08T11:12:00.345Z,11.95
2023-03-08T11:15:10.645Z,11.96
2023-03-08T11:18:40.679Z,12.10
2023-03-08T11:21:49.345Z,12.27
2023-03-08T11:25:17.480Z,12.50
2023-03-08T11:28:26.379Z,12.77
2023-03-08T11:31:35.015Z,13.20
2023-03-08T11:35:02.847Z,13.49
2023-03-08T11:38:30.973Z,13.60
2023-03-08T11:41:59.328Z,13.41
2023-03-08T11:45:07.993Z,13.64
2023-03-08T11:48:35.758Z,13.65
2023-03-08T11:51:24.710Z,13.70
2023-03-08T11:54:15.976Z,13.78
2023-03-08T11:57:43.970Z,13.81
2023-03-08T12:00:51.733Z,13.79
2023-03-08T12:04:19.846Z,14.16
2023-03-08T12:07:45.228Z,14.00
2023-03-08T12:11:09.441Z,14.59
2023-03-08T12:14:37.075Z,14.87
2023-03-08T12:18:04.933Z,14.99
2023-03-08T12:21:33.160Z,14.99
2023-03-08T12:24:41.168Z,15.34
2023-03-08T12:27:49.879Z,15.59
2023-03-08T12:30:59.423Z,15.69
2023-03-08T12:34:11.364Z,15.50
2023-03-08T12:37:34.469Z,15.54
2023-03-08T12:41:02.705Z,15.75
2023-03-08T12:44:11.757Z,15.87
2023-03-08T12:47:20.142Z,15.91
2023-03-08T12:50:48.373Z,15.81
2023-03-08T12:54:16.242Z,15.45
2023-03-08T12:57:44.106Z,15.65
2023-03-08T13:00:43.662Z,15.66
2023-03-08T13:04:11.571Z,15.85
2023-03-08T13:07:22.910Z,16.00
2023-03-08T13:10:35.258Z,16.15
2023-03-08T13:13:58.993Z,16.24
2023-03-08T13:17:26.989Z,16.17
2023-03-08T13:20:54.887Z,16.41
2023-03-08T13:24:04.661Z,16.35
2023-03-08T13:26:57.097Z,16.43
2023-03-08T13:30:25.042Z,16.07
2023-03-08T13:33:53.100Z,16.00
2023-03-08T13:36:41.730Z,15.68
2023-03-08T13:40:09.721Z,15.50
2023-03-08T13:43:37.742Z,15.41
2023-03-08T13:47:05.740Z,15.26
2023-03-08T13:50:33.673Z,15.07
2023-03-08T13:54:01.294Z,14.62
2023-03-08T13:57:29.083Z,14.64
2023-03-08T14:00:39.176Z,14.54
2023-03-08T14:04:07.162Z,14.46
2023-03-08T14:07:36.917Z,14.55
2023-03-08T14:11:16.274Z,14.23
2023-03-08T14:14:07.423Z,14.23
2023-03-08T14:16:35.753Z,14.26
2023-03-08T14:20:03.585Z,14.32
2023-03-08T14:22:59.741Z,14.41
2023-03-08T14:26:09.478Z,14.39
2023-03-08T14:29:01.674Z,14.28
2023-03-08T14:31:51.539Z,14.29
2023-03-08T14:35:19.676Z,14.33
2023-03-08T14:38:10.730Z,14.37
2023-03-08T14:41:19.406Z,14.43
2023-03-08T14:44:35.048Z,14.62
2023-03-08T14:47:23.865Z,14.68
2023-03-08T14:50:51.485Z,14.57
2023-03-08T14:54:00.187Z,14.45
2023-03-08T14:57:28.098Z,14.43
2023-03-08T15:00:38.470Z,14.30
2023-03-08T15:04:08.488Z,14.28
2023-03-08T15:07:17.024Z,14.24
2023-03-08T15:10:25.215Z,14.23
2023-03-08T15:13:14.535Z,14.21
2023-03-08T15:16:42.845Z,14.16
2023-03-08T15:20:00.108Z,14.03
2023-03-08T15:23:10.078Z,13.93
2023-03-08T15:26:37.948Z,13.91
2023-03-08T15:30:05.837Z,13.84
2023-03-08T15:33:13.588Z,13.72
2023-03-08T15:36:41.357Z,13.66
2023-03-08T15:40:09.334Z,13.59
2023-03-08T15:43:13.580Z,13.46
2023-03-08T15:46:41.863Z,13.46
2023-03-08T15:49:51.727Z,13.39
2023-03-08T15:53:00.702Z,13.35
2023-03-08T15:56:05.064Z,13.34
2023-03-08T15:59:13.845Z,13.34
2023-03-08T16:02:02.738Z,13.41
2023-03-08T16:05:11.570Z,13.68
2023-03-08T16:08:10.347Z,14.25
2023-03-08T16:11:38.048Z,14.62
2023-03-08T16:15:05.984Z,14.55
2023-03-08T16:18:14.478Z,14.37
2023-03-08T16:21:42.525Z,13.96
2023-03-08T16:25:06.114Z,13.78
2023-03-08T16:28:33.614Z,13.62
2023-03-08T16:31:49.240Z,13.49
2023-03-08T16:35:17.299Z,13.33
2023-03-08T16:38:15.496Z,13.18
2023-03-08T16:41:43.456Z,13.06
2023-03-08T16:44:55.400Z,12.98
2023-03-08T16:48:23.280Z,12.90
2023-03-08T16:51:47.477Z,12.82
2023-03-08T16:55:15.410Z,12.76
2023-03-08T16:58:20.523Z,12.64
2023-03-08T17:01:13.114Z,12.63
2023-03-08T17:04:40.965Z,12.59
2023-03-08T17:08:04.414Z,12.55
2023-03-08T17:11:32.556Z,12.48
2023-03-08T17:15:00.374Z,12.47
2023-03-08T17:18:09.319Z,12.48
2023-03-08T17:21:37.647Z,12.49
2023-03-08T17:25:01.319Z,12.51
2023-03-08T17:28:24.879Z,12.51
2023-03-08T17:31:48.580Z,12.50
2023-03-08T17:35:16.429Z,12.47
2023-03-08T17:38:44.332Z,12.48
2023-03-08T17:41:58.474Z,12.46
2023-03-08T17:45:07.567Z,12.43
2023-03-08T17:48:35.502Z,12.37
2023-03-08T17:51:24.792Z,12.30
2023-03-08T17:54:33.546Z,12.27
2023-03-08T17:58:01.340Z,12.25
2023-03-08T18:01:11.468Z,12.26
2023-03-08T18:04:23.512Z,12.29
2023-03-08T18:07:27.719Z,12.32
2023-03-08T18:10:55.352Z,12.33
2023-03-08T18:14:04.535Z,12.33
2023-03-08T18:17:13.642Z,12.30
2023-03-08T18:20:22.770Z,12.32
2023-03-08T18:23:50.406Z,12.34
2023-03-08T18:27:18.535Z,12.31
2023-03-08T18:30:27.582Z,12.30
2023-03-08T18:33:43.160Z,12.33
2023-03-08T18:37:10.855Z,12.33
2023-03-08T18:40:38.941Z,12.25
2023-03-08T18:43:50.717Z,12.23
2023-03-08T18:47:14.456Z,12.13
2023-03-08T18:50:19.797Z,12.11
2023-03-08T18:53:48.367Z,12.15
2023-03-08T18:57:06.116Z,12.13
2023-03-08T19:00:14.408Z,12.12
2023-03-08T19:03:38.983Z,12.13
2023-03-08T19:06:48.639Z,12.15
2023-03-08T19:10:16.373Z,12.13
2023-03-08T19:13:43.046Z,12.10
2023-03-08T19:17:11.329Z,12.09
2023-03-08T19:20:39.319Z,12.12
2023-03-08T19:23:48.133Z,12.12
2023-03-08T19:26:58.225Z,12.11
2023-03-08T19:30:25.973Z,12.13
2023-03-08T19:33:53.954Z,12.14
2023-03-08T19:37:22.768Z,12.15
2023-03-08T19:40:12.893Z,12.14
2023-03-08T19:43:25.836Z,12.14
2023-03-08T19:46:53.698Z,12.19
2023-03-08T19:50:02.568Z,12.26
2023-03-08T19:53:30.438Z,12.30
2023-03-08T19:56:58.273Z,12.33
2023-03-08T20:00:26.019Z,12.37
2023-03-08T20:03:37.970Z,12.38
2023-03-08T20:07:05.966Z,12.42
2023-03-08T20:10:33.834Z,12.42
2023-03-08T20:14:01.778Z,12.38
2023-03-08T20:17:25.243Z,12.32
2023-03-08T20:20:15.088Z,12.32
2023-03-08T20:23:19.930Z,12.30
2023-03-08T20:26:47.799Z,12.26
2023-03-08T20:30:11.899Z,12.22
2023-03-08T20:33:16.642Z,12.23
2023-03-08T20:36:25.345Z,12.25
2023-03-08T20:39:33.997Z,12.28
2023-03-08T20:42:59.030Z,12.32
2023-03-08T20:46:07.859Z,12.35
2023-03-08T20:49:35.693Z,12.38
2023-03-08T20:52:48.377Z,12.40
2023-03-08T20:55:59.860Z,12.40
2023-03-08T20:59:15.661Z,12.37
2023-03-08T21:02:39.558Z,12.36
2023-03-08T21:06:07.458Z,12.30
2023-03-08T21:09:32.561Z,12.25
2023-03-08T21:12:22.542Z,12.19
2023-03-08T21:15:50.718Z,12.16
2023-03-08T21:19:18.475Z,12.14
2023-03-08T21:22:46.230Z,12.11
2023-03-08T21:26:14.313Z,12.12
2023-03-08T21:29:42.378Z,12.09
2023-03-08T21:33:10.173Z,12.07
2023-03-08T21:36:38.022Z,11.99
2023-03-08T21:39:45.898Z,11.97
2023-03-08T21:43:13.640Z,11.96
2023-03-08T21:46:41.586Z,11.90
2023-03-08T21:50:10.095Z,11.84
2023-03-08T21:53:37.318Z,11.79
2023-03-08T21:57:05.222Z,11.78
2023-03-08T22:00:16.856Z,11.77
2023-03-08T22:03:44.810Z,11.74
2023-03-08T22:06:35.703Z,11.73
2023-03-08T22:09:51.490Z,11.72
2023-03-08T22:13:03.086Z,11.66
2023-03-08T22:16:31.476Z,11.63
2023-03-08T22:19:59.382Z,11.62
2023-03-08T22:22:49.108Z,11.68
2023-03-08T22:26:16.879Z,11.70
2023-03-08T22:29:44.848Z,11.66
2023-03-08T22:33:12.576Z,11.66
2023-03-08T22:36:40.357Z,11.66
2023-03-08T22:39:55.995Z,11.68
2023-03-08T22:43:11.860Z,11.71
2023-03-08T22:46:39.722Z,11.69
2023-03-08T22:50:07.405Z,11.69
2023-03-08T22:52:56.192Z,11.69
2023-03-08T22:56:01.489Z,11.69
2023-03-08T22:58:47.957Z,11.67
2023-03-08T23:01:38.150Z,11.55
2023-03-08T23:05:05.926Z,11.57
2023-03-08T23:08:33.872Z,11.52
2023-03-08T23:12:01.713Z,11.52
2023-03-08T23:15:29.645Z,11.51
2023-03-08T23:18:57.434Z,11.49
2023-03-08T23:22:07.141Z,11.50
2023-03-08T23:25:16.688Z,11.46
2023-03-08T23:28:25.179Z,11.42
2023-03-08T23:31:34.910Z,11.32
2023-03-08T23:34:42.803Z,11.32
2023-03-08T23:37:59.756Z,11.26
2023-03-08T23:41:29.312Z,11.19
2023-03-08T23:44:44.877Z,11.22
2023-03-08T23:48:12.629Z,11.22
2023-03-08T23:51:40.965Z,11.23
2023-03-08T23:55:08.924Z,11.27
2023-03-08T23:58:18.716Z,11.26
